sensor_id;sensor_type;location;lat;lon;timestamp;P1;durP1;ratioP1;P2;durP2;ratioP2
10511;SDS011;5304;48.604;2.096;2023-04-15T00:00:18;13.53;;;8.27;;
10511;SDS011;5304;48.604;2.096;2023-04-15T00:03:03;8.87;;;7.27;;
10511;SDS011;5304;48.604;2.096;2023-04-15T00:05:49;11.43;;;8.20;;
10511;SDS011;5304;48.604;2.096;2023-04-15T00:08:34;10.83;;;8.37;;
10511;SDS011;5304;48.604;2.096;2023-04-15T00:11:19;11.87;;;8.80;;
10511;SDS011;5304;48.604;2.096;2023-04-15T00:14:03;10.93;;;8.00;;
10511;SDS011;5304;48.604;2.096;2023-04-15T00:16:48;10.93;;;7.93;;
10511;SDS011;5304;48.604;2.096;2023-04-15T00:19:38;10.37;;;6.90;;
10511;SDS011;5304;48.604;2.096;2023-04-15T00:22:23;9.70;;;7.90;;
10511;SDS011;5304;48.604;2.096;2023-04-15T00:25:08;8.90;;;7.93;;
10511;SDS011;5304;48.604;2.096;2023-04-15T00:27:52;12.40;;;8.10;;
10511;SDS011;5304;48.604;2.096;2023-04-15T00:30:37;12.60;;;8.97;;
10511;SDS011;5304;48.604;2.096;2023-04-15T00:33:21;10.77;;;7.97;;
10511;SDS011;5304;48.604;2.096;2023-04-15T00:36:06;11.03;;;8.13;;
10511;SDS011;5304;48.604;2.096;2023-04-15T00:38:51;8.33;;;7.43;;
10511;SDS011;5304;48.604;2.096;2023-04-15T00:41:36;8.63;;;7.70;;
10511;SDS011;5304;48.604;2.096;2023-04-15T00:44:22;12.43;;;8.17;;
10511;SDS011;5304;48.604;2.096;2023-04-15T00:47:07;8.87;;;7.97;;
10511;SDS011;5304;48.604;2.096;2023-04-15T00:49:52;9.93;;;6.97;;
10511;SDS011;5304;48.604;2.096;2023-04-15T00:52:37;8.77;;;7.30;;
10511;SDS011;5304;48.604;2.096;2023-04-15T00:55:23;9.37;;;7.43;;
10511;SDS011;5304;48.604;2.096;2023-04-15T00:58:07;8.67;;;7.13;;
10511;SDS011;5304;48.604;2.096;2023-04-15T01:00:51;10.33;;;7.13;;
10511;SDS011;5304;48.604;2.096;2023-04-15T01:03:37;10.23;;;7.20;;
10511;SDS011;5304;48.604;2.096;2023-04-15T01:06:21;12.60;;;7.77;;
10511;SDS011;5304;48.604;2.096;2023-04-15T01:09:06;9.90;;;7.43;;
10511;SDS011;5304;48.604;2.096;2023-04-15T01:11:50;10.43;;;7.23;;
10511;SDS011;5304;48.604;2.096;2023-04-15T01:14:35;9.37;;;7.80;;
10511;SDS011;5304;48.604;2.096;2023-04-15T01:17:19;7.57;;;6.70;;
10511;SDS011;5304;48.604;2.096;2023-04-15T01:20:04;8.80;;;7.43;;
10511;SDS011;5304;48.604;2.096;2023-04-15T01:22:52;9.27;;;7.53;;
10511;SDS011;5304;48.604;2.096;2023-04-15T01:25:38;11.70;;;8.93;;
10511;SDS011;5304;48.604;2.096;2023-04-15T01:28:24;9.90;;;8.20;;
10511;SDS011;5304;48.604;2.096;2023-04-15T01:31:10;12.70;;;8.63;;
10511;SDS011;5304;48.604;2.096;2023-04-15T01:33:56;9.57;;;7.20;;
10511;SDS011;5304;48.604;2.096;2023-04-15T01:36:41;8.10;;;6.10;;
10511;SDS011;5304;48.604;2.096;2023-04-15T01:39:25;7.13;;;6.27;;
10511;SDS011;5304;48.604;2.096;2023-04-15T01:42:09;3.60;;;3.20;;
10511;SDS011;5304;48.604;2.096;2023-04-15T01:44:54;4.40;;;2.70;;
10511;SDS011;5304;48.604;2.096;2023-04-15T01:47:39;4.90;;;3.33;;
10511;SDS011;5304;48.604;2.096;2023-04-15T01:50:23;3.30;;;2.93;;
10511;SDS011;5304;48.604;2.096;2023-04-15T01:53:08;2.70;;;2.30;;
10511;SDS011;5304;48.604;2.096;2023-04-15T01:55:53;4.60;;;2.20;;
10511;SDS011;5304;48.604;2.096;2023-04-15T01:58:38;2.60;;;1.80;;
10511;SDS011;5304;48.604;2.096;2023-04-15T02:01:23;1.60;;;1.43;;
10511;SDS011;5304;48.604;2.096;2023-04-15T02:04:07;1.97;;;1.40;;
10511;SDS011;5304;48.604;2.096;2023-04-15T02:06:59;1.87;;;1.77;;
10511;SDS011;5304;48.604;2.096;2023-04-15T02:09:43;1.43;;;1.33;;
10511;SDS011;5304;48.604;2.096;2023-04-15T02:12:28;3.07;;;1.40;;
10511;SDS011;5304;48.604;2.096;2023-04-15T02:15:13;2.33;;;1.80;;
10511;SDS011;5304;48.604;2.096;2023-04-15T02:17:59;1.97;;;1.70;;
10511;SDS011;5304;48.604;2.096;2023-04-15T02:20:44;1.77;;;1.53;;
10511;SDS011;5304;48.604;2.096;2023-04-15T02:23:29;1.70;;;1.47;;
10511;SDS011;5304;48.604;2.096;2023-04-15T02:26:14;1.50;;;1.30;;
10511;SDS011;5304;48.604;2.096;2023-04-15T02:28:58;1.93;;;1.47;;
10511;SDS011;5304;48.604;2.096;2023-04-15T02:31:43;1.57;;;1.40;;
10511;SDS011;5304;48.604;2.096;2023-04-15T02:34:28;2.03;;;1.30;;
10511;SDS011;5304;48.604;2.096;2023-04-15T02:37:12;1.37;;;1.27;;
10511;SDS011;5304;48.604;2.096;2023-04-15T02:39:56;1.80;;;1.10;;
10511;SDS011;5304;48.604;2.096;2023-04-15T02:42:41;1.70;;;1.40;;
10511;SDS011;5304;48.604;2.096;2023-04-15T02:45:27;1.67;;;1.57;;
10511;SDS011;5304;48.604;2.096;2023-04-15T02:48:11;3.37;;;1.87;;
10511;SDS011;5304;48.604;2.096;2023-04-15T02:51:15;1.90;;;1.80;;
10511;SDS011;5304;48.604;2.096;2023-04-15T02:54:04;3.03;;;2.00;;
10511;SDS011;5304;48.604;2.096;2023-04-15T02:56:48;2.10;;;1.80;;
10511;SDS011;5304;48.604;2.096;2023-04-15T02:59:33;2.50;;;1.80;;
10511;SDS011;5304;48.604;2.096;2023-04-15T03:02:17;1.63;;;1.50;;
10511;SDS011;5304;48.604;2.096;2023-04-15T03:05:02;2.87;;;1.30;;
10511;SDS011;5304;48.604;2.096;2023-04-15T03:07:47;2.47;;;1.57;;
10511;SDS011;5304;48.604;2.096;2023-04-15T03:10:31;1.43;;;1.33;;
10511;SDS011;5304;48.604;2.096;2023-04-15T03:13:16;4.53;;;1.90;;
10511;SDS011;5304;48.604;2.096;2023-04-15T03:16:02;1.77;;;1.63;;
10511;SDS011;5304;48.604;2.096;2023-04-15T03:18:47;1.83;;;1.30;;
10511;SDS011;5304;48.604;2.096;2023-04-15T03:21:31;4.53;;;1.80;;
10511;SDS011;5304;48.604;2.096;2023-04-15T03:24:16;3.37;;;1.87;;
10511;SDS011;5304;48.604;2.096;2023-04-15T03:27:00;2.63;;;1.60;;
10511;SDS011;5304;48.604;2.096;2023-04-15T03:29:45;4.53;;;1.70;;
10511;SDS011;5304;48.604;2.096;2023-04-15T03:32:29;3.90;;;1.70;;
10511;SDS011;5304;48.604;2.096;2023-04-15T03:35:14;3.70;;;1.60;;
10511;SDS011;5304;48.604;2.096;2023-04-15T03:37:58;1.47;;;1.37;;
10511;SDS011;5304;48.604;2.096;2023-04-15T03:40:43;3.07;;;1.53;;
10511;SDS011;5304;48.604;2.096;2023-04-15T03:43:29;3.03;;;1.60;;
10511;SDS011;5304;48.604;2.096;2023-04-15T03:46:13;3.27;;;1.60;;
10511;SDS011;5304;48.604;2.096;2023-04-15T03:48:58;2.40;;;1.50;;
10511;SDS011;5304;48.604;2.096;2023-04-15T03:51:42;4.53;;;1.97;;
10511;SDS011;5304;48.604;2.096;2023-04-15T03:54:27;3.70;;;1.67;;
10511;SDS011;5304;48.604;2.096;2023-04-15T03:57:11;2.17;;;1.60;;
10511;SDS011;5304;48.604;2.096;2023-04-15T03:59:56;2.93;;;1.90;;
10511;SDS011;5304;48.604;2.096;2023-04-15T04:02:40;1.97;;;1.53;;
10511;SDS011;5304;48.604;2.096;2023-04-15T04:05:24;2.57;;;1.80;;
10511;SDS011;5304;48.604;2.096;2023-04-15T04:08:09;1.33;;;1.23;;
10511;SDS011;5304;48.604;2.096;2023-04-15T04:10:56;1.77;;;1.67;;
10511;SDS011;5304;48.604;2.096;2023-04-15T04:13:41;1.70;;;1.60;;
10511;SDS011;5304;48.604;2.096;2023-04-15T04:16:25;2.27;;;1.97;;
10511;SDS011;5304;48.604;2.096;2023-04-15T04:19:09;2.00;;;1.60;;
10511;SDS011;5304;48.604;2.096;2023-04-15T04:21:54;3.03;;;2.17;;
10511;SDS011;5304;48.604;2.096;2023-04-15T04:24:38;2.27;;;1.97;;
10511;SDS011;5304;48.604;2.096;2023-04-15T04:27:23;3.37;;;1.90;;
10511;SDS011;5304;48.604;2.096;2023-04-15T04:30:07;2.53;;;1.57;;
10511;SDS011;5304;48.604;2.096;2023-04-15T04:32:52;1.80;;;1.70;;
10511;SDS011;5304;48.604;2.096;2023-04-15T04:35:36;2.80;;;1.57;;
10511;SDS011;5304;48.604;2.096;2023-04-15T04:38:21;3.03;;;1.53;;
10511;SDS011;5304;48.604;2.096;2023-04-15T04:41:05;1.47;;;1.37;;
10511;SDS011;5304;48.604;2.096;2023-04-15T04:43:50;5.30;;;1.87;;
10511;SDS011;5304;48.604;2.096;2023-04-15T04:46:34;1.73;;;1.60;;
10511;SDS011;5304;48.604;2.096;2023-04-15T04:49:19;1.87;;;1.77;;
10511;SDS011;5304;48.604;2.096;2023-04-15T04:52:04;2.10;;;1.90;;
10511;SDS011;5304;48.604;2.096;2023-04-15T04:54:49;3.47;;;2.10;;
10511;SDS011;5304;48.604;2.096;2023-04-15T04:57:33;2.37;;;1.93;;
10511;SDS011;5304;48.604;2.096;2023-04-15T05:00:22;2.30;;;2.00;;
10511;SDS011;5304;48.604;2.096;2023-04-15T05:03:07;2.87;;;1.90;;
10511;SDS011;5304;48.604;2.096;2023-04-15T05:05:51;2.00;;;1.80;;
10511;SDS011;5304;48.604;2.096;2023-04-15T05:08:36;2.70;;;2.00;;
10511;SDS011;5304;48.604;2.096;2023-04-15T05:11:20;5.10;;;1.87;;
10511;SDS011;5304;48.604;2.096;2023-04-15T05:14:05;2.10;;;1.90;;
10511;SDS011;5304;48.604;2.096;2023-04-15T05:16:49;3.33;;;1.97;;
10511;SDS011;5304;48.604;2.096;2023-04-15T05:19:34;2.83;;;1.67;;
10511;SDS011;5304;48.604;2.096;2023-04-15T05:22:18;1.70;;;1.60;;
10511;SDS011;5304;48.604;2.096;2023-04-15T05:25:03;2.63;;;2.20;;
10511;SDS011;5304;48.604;2.096;2023-04-15T05:27:48;2.53;;;1.77;;
10511;SDS011;5304;48.604;2.096;2023-04-15T05:30:32;1.70;;;1.50;;
10511;SDS011;5304;48.604;2.096;2023-04-15T05:33:17;3.60;;;2.10;;
10511;SDS011;5304;48.604;2.096;2023-04-15T05:36:04;1.90;;;1.80;;
10511;SDS011;5304;48.604;2.096;2023-04-15T05:38:48;2.33;;;1.97;;
10511;SDS011;5304;48.604;2.096;2023-04-15T05:41:33;2.27;;;2.07;;
10511;SDS011;5304;48.604;2.096;2023-04-15T05:44:18;3.00;;;2.30;;
10511;SDS011;5304;48.604;2.096;2023-04-15T05:47:02;3.53;;;2.20;;
10511;SDS011;5304;48.604;2.096;2023-04-15T05:49:46;3.03;;;2.53;;
10511;SDS011;5304;48.604;2.096;2023-04-15T05:52:31;2.83;;;2.53;;
10511;SDS011;5304;48.604;2.096;2023-04-15T05:55:15;3.03;;;2.30;;
10511;SDS011;5304;48.604;2.096;2023-04-15T05:58:00;3.00;;;2.47;;
10511;SDS011;5304;48.604;2.096;2023-04-15T06:00:44;4.37;;;2.70;;
10511;SDS011;5304;48.604;2.096;2023-04-15T06:03:29;5.50;;;3.03;;
10511;SDS011;5304;48.604;2.096;2023-04-15T06:06:14;2.77;;;2.57;;
10511;SDS011;5304;48.604;2.096;2023-04-15T06:08:59;3.00;;;2.30;;
10511;SDS011;5304;48.604;2.096;2023-04-15T06:11:44;4.10;;;2.20;;
10511;SDS011;5304;48.604;2.096;2023-04-15T06:14:28;3.77;;;2.37;;
10511;SDS011;5304;48.604;2.096;2023-04-15T06:17:12;3.10;;;2.67;;
10511;SDS011;5304;48.604;2.096;2023-04-15T06:19:58;5.27;;;3.10;;
10511;SDS011;5304;48.604;2.096;2023-04-15T06:22:42;4.00;;;2.90;;
10511;SDS011;5304;48.604;2.096;2023-04-15T06:25:26;3.03;;;2.57;;
10511;SDS011;5304;48.604;2.096;2023-04-15T06:28:11;2.50;;;2.30;;
10511;SDS011;5304;48.604;2.096;2023-04-15T06:30:55;2.87;;;2.30;;
10511;SDS011;5304;48.604;2.096;2023-04-15T06:33:39;2.70;;;2.40;;
10511;SDS011;5304;48.604;2.096;2023-04-15T06:36:24;3.40;;;2.40;;
10511;SDS011;5304;48.604;2.096;2023-04-15T06:39:09;3.67;;;2.50;;
10511;SDS011;5304;48.604;2.096;2023-04-15T06:41:53;2.73;;;2.10;;
10511;SDS011;5304;48.604;2.096;2023-04-15T06:44:39;1.83;;;1.70;;
10511;SDS011;5304;48.604;2.096;2023-04-15T06:47:23;1.60;;;1.50;;
10511;SDS011;5304;48.604;2.096;2023-04-15T06:50:08;1.70;;;1.47;;
10511;SDS011;5304;48.604;2.096;2023-04-15T06:52:54;2.67;;;1.60;;
10511;SDS011;5304;48.604;2.096;2023-04-15T06:55:40;2.87;;;1.63;;
10511;SDS011;5304;48.604;2.096;2023-04-15T06:58:24;2.10;;;1.60;;
10511;SDS011;5304;48.604;2.096;2023-04-15T07:01:09;1.93;;;1.73;;
10511;SDS011;5304;48.604;2.096;2023-04-15T07:03:54;1.60;;;1.50;;
10511;SDS011;5304;48.604;2.096;2023-04-15T07:06:38;1.70;;;1.53;;
10511;SDS011;5304;48.604;2.096;2023-04-15T07:09:23;1.60;;;1.37;;
10511;SDS011;5304;48.604;2.096;2023-04-15T07:12:08;2.00;;;1.80;;
10511;SDS011;5304;48.604;2.096;2023-04-15T07:14:53;1.67;;;1.40;;
10511;SDS011;5304;48.604;2.096;2023-04-15T07:17:37;2.07;;;1.50;;
10511;SDS011;5304;48.604;2.096;2023-04-15T07:20:22;1.93;;;1.53;;
10511;SDS011;5304;48.604;2.096;2023-04-15T07:23:06;2.10;;;1.90;;
10511;SDS011;5304;48.604;2.096;2023-04-15T07:25:51;2.43;;;2.23;;
10511;SDS011;5304;48.604;2.096;2023-04-15T07:28:35;3.43;;;1.97;;
10511;SDS011;5304;48.604;2.096;2023-04-15T07:31:20;3.20;;;2.53;;
10511;SDS011;5304;48.604;2.096;2023-04-15T07:34:05;3.63;;;2.53;;
10511;SDS011;5304;48.604;2.096;2023-04-15T07:36:50;4.23;;;2.53;;
10511;SDS011;5304;48.604;2.096;2023-04-15T07:39:34;3.10;;;2.57;;
10511;SDS011;5304;48.604;2.096;2023-04-15T07:42:20;3.23;;;2.87;;
10511;SDS011;5304;48.604;2.096;2023-04-15T07:45:05;4.37;;;3.10;;
10511;SDS011;5304;48.604;2.096;2023-04-15T07:47:50;3.90;;;3.47;;
10511;SDS011;5304;48.604;2.096;2023-04-15T07:50:34;4.43;;;2.87;;
10511;SDS011;5304;48.604;2.096;2023-04-15T07:53:19;4.93;;;3.43;;
10511;SDS011;5304;48.604;2.096;2023-04-15T07:56:04;4.00;;;2.70;;
10511;SDS011;5304;48.604;2.096;2023-04-15T07:58:48;4.57;;;3.60;;
10511;SDS011;5304;48.604;2.096;2023-04-15T08:01:32;4.00;;;3.10;;
10511;SDS011;5304;48.604;2.096;2023-04-15T08:04:17;3.73;;;2.67;;
10511;SDS011;5304;48.604;2.096;2023-04-15T08:07:01;5.93;;;3.30;;
10511;SDS011;5304;48.604;2.096;2023-04-15T08:09:46;4.40;;;2.67;;
10511;SDS011;5304;48.604;2.096;2023-04-15T08:12:31;13.77;;;8.27;;
10511;SDS011;5304;48.604;2.096;2023-04-15T08:15:15;4.13;;;3.37;;
10511;SDS011;5304;48.604;2.096;2023-04-15T08:18:00;3.83;;;3.37;;
10511;SDS011;5304;48.604;2.096;2023-04-15T08:20:44;7.33;;;3.87;;
10511;SDS011;5304;48.604;2.096;2023-04-15T08:23:29;5.97;;;4.33;;
10511;SDS011;5304;48.604;2.096;2023-04-15T08:26:14;11.00;;;7.17;;
10511;SDS011;5304;48.604;2.096;2023-04-15T08:28:58;6.33;;;3.60;;
10511;SDS011;5304;48.604;2.096;2023-04-15T08:31:43;4.77;;;3.40;;
10511;SDS011;5304;48.604;2.096;2023-04-15T08:34:28;5.93;;;3.50;;
10511;SDS011;5304;48.604;2.096;2023-04-15T08:37:13;3.13;;;2.57;;
10511;SDS011;5304;48.604;2.096;2023-04-15T08:39:57;3.30;;;3.00;;
10511;SDS011;5304;48.604;2.096;2023-04-15T08:42:45;5.03;;;2.90;;
10511;SDS011;5304;48.604;2.096;2023-04-15T08:45:34;3.60;;;2.83;;
10511;SDS011;5304;48.604;2.096;2023-04-15T08:48:22;4.33;;;2.87;;
10511;SDS011;5304;48.604;2.096;2023-04-15T08:51:10;5.93;;;2.97;;
10511;SDS011;5304;48.604;2.096;2023-04-15T08:53:58;3.20;;;2.70;;
10511;SDS011;5304;48.604;2.096;2023-04-15T08:56:44;4.90;;;2.43;;
10511;SDS011;5304;48.604;2.096;2023-04-15T08:59:29;3.97;;;2.77;;
10511;SDS011;5304;48.604;2.096;2023-04-15T09:02:14;3.23;;;2.90;;
10511;SDS011;5304;48.604;2.096;2023-04-15T09:04:59;4.87;;;3.03;;
10511;SDS011;5304;48.604;2.096;2023-04-15T09:07:43;3.03;;;2.73;;
10511;SDS011;5304;48.604;2.096;2023-04-15T09:10:28;6.23;;;3.07;;
10511;SDS011;5304;48.604;2.096;2023-04-15T09:13:13;4.37;;;3.13;;
10511;SDS011;5304;48.604;2.096;2023-04-15T09:16:00;3.83;;;2.90;;
10511;SDS011;5304;48.604;2.096;2023-04-15T09:18:47;2.80;;;2.60;;
10511;SDS011;5304;48.604;2.096;2023-04-15T09:21:31;3.37;;;3.00;;
10511;SDS011;5304;48.604;2.096;2023-04-15T09:24:17;7.57;;;3.40;;
10511;SDS011;5304;48.604;2.096;2023-04-15T09:27:01;4.93;;;3.33;;
10511;SDS011;5304;48.604;2.096;2023-04-15T09:29:48;5.60;;;2.80;;
10511;SDS011;5304;48.604;2.096;2023-04-15T09:32:33;6.47;;;3.83;;
10511;SDS011;5304;48.604;2.096;2023-04-15T09:35:18;5.13;;;3.83;;
10511;SDS011;5304;48.604;2.096;2023-04-15T09:38:05;3.80;;;3.30;;
10511;SDS011;5304;48.604;2.096;2023-04-15T09:40:50;3.13;;;2.80;;
10511;SDS011;5304;48.604;2.096;2023-04-15T09:43:38;9.77;;;4.07;;
10511;SDS011;5304;48.604;2.096;2023-04-15T09:46:40;3.53;;;3.23;;
10511;SDS011;5304;48.604;2.096;2023-04-15T09:49:26;4.53;;;3.30;;
10511;SDS011;5304;48.604;2.096;2023-04-15T09:52:12;3.67;;;3.20;;
10511;SDS011;5304;48.604;2.096;2023-04-15T09:54:57;6.50;;;3.57;;
10511;SDS011;5304;48.604;2.096;2023-04-15T09:57:42;8.53;;;4.50;;
10511;SDS011;5304;48.604;2.096;2023-04-15T10:00:29;4.03;;;3.23;;
10511;SDS011;5304;48.604;2.096;2023-04-15T10:03:19;4.83;;;2.90;;
10511;SDS011;5304;48.604;2.096;2023-04-15T10:06:08;4.17;;;3.43;;
10511;SDS011;5304;48.604;2.096;2023-04-15T10:08:53;4.83;;;3.50;;
10511;SDS011;5304;48.604;2.096;2023-04-15T10:11:38;3.50;;;3.20;;
10511;SDS011;5304;48.604;2.096;2023-04-15T10:14:23;7.97;;;3.87;;
10511;SDS011;5304;48.604;2.096;2023-04-15T10:17:11;3.37;;;3.07;;
10511;SDS011;5304;48.604;2.096;2023-04-15T10:19:56;2.83;;;2.50;;
10511;SDS011;5304;48.604;2.096;2023-04-15T10:22:43;2.60;;;2.27;;
10511;SDS011;5304;48.604;2.096;2023-04-15T10:25:29;3.13;;;2.87;;
10511;SDS011;5304;48.604;2.096;2023-04-15T10:28:16;2.70;;;2.50;;
10511;SDS011;5304;48.604;2.096;2023-04-15T10:31:01;3.57;;;2.80;;
10511;SDS011;5304;48.604;2.096;2023-04-15T10:33:47;6.07;;;2.80;;
10511;SDS011;5304;48.604;2.096;2023-04-15T10:36:32;4.67;;;3.87;;
10511;SDS011;5304;48.604;2.096;2023-04-15T10:42:19;6.23;;;4.53;;
10511;SDS011;5304;48.604;2.096;2023-04-15T10:45:05;6.47;;;3.80;;
10511;SDS011;5304;48.604;2.096;2023-04-15T10:48:01;13.40;;;7.10;;
10511;SDS011;5304;48.604;2.096;2023-04-15T10:50:56;3.93;;;3.10;;
10511;SDS011;5304;48.604;2.096;2023-04-15T10:53:43;6.63;;;3.77;;
10511;SDS011;5304;48.604;2.096;2023-04-15T10:56:28;5.13;;;2.43;;
10511;SDS011;5304;48.604;2.096;2023-04-15T10:59:13;5.13;;;2.73;;
10511;SDS011;5304;48.604;2.096;2023-04-15T11:02:02;3.83;;;2.43;;
10511;SDS011;5304;48.604;2.096;2023-04-15T11:04:54;5.47;;;3.33;;
10511;SDS011;5304;48.604;2.096;2023-04-15T11:13:16;3.20;;;2.63;;
10511;SDS011;5304;48.604;2.096;2023-04-15T11:16:06;2.93;;;2.40;;
10511;SDS011;5304;48.604;2.096;2023-04-15T11:18:54;3.20;;;2.87;;
10511;SDS011;5304;48.604;2.096;2023-04-15T11:21:39;5.17;;;2.80;;
10511;SDS011;5304;48.604;2.096;2023-04-15T11:24:23;2.53;;;2.33;;
10511;SDS011;5304;48.604;2.096;2023-04-15T11:27:19;4.63;;;2.70;;
10511;SDS011;5304;48.604;2.096;2023-04-15T11:30:19;4.03;;;3.60;;
10511;SDS011;5304;48.604;2.096;2023-04-15T11:33:05;3.73;;;3.40;;
10511;SDS011;5304;48.604;2.096;2023-04-15T11:35:51;3.70;;;3.40;;
10511;SDS011;5304;48.604;2.096;2023-04-15T11:38:42;4.77;;;4.30;;
10511;SDS011;5304;48.604;2.096;2023-04-15T11:41:27;3.00;;;2.70;;
10511;SDS011;5304;48.604;2.096;2023-04-15T11:44:15;2.37;;;2.20;;
10511;SDS011;5304;48.604;2.096;2023-04-15T11:47:00;2.70;;;2.50;;
10511;SDS011;5304;48.604;2.096;2023-04-15T11:49:45;2.70;;;2.50;;
10511;SDS011;5304;48.604;2.096;2023-04-15T11:52:29;2.60;;;2.20;;
10511;SDS011;5304;48.604;2.096;2023-04-15T11:55:14;3.70;;;2.50;;
10511;SDS011;5304;48.604;2.096;2023-04-15T12:00:54;2.70;;;2.50;;
10511;SDS011;5304;48.604;2.096;2023-04-15T12:03:41;3.93;;;2.87;;
10511;SDS011;5304;48.604;2.096;2023-04-15T12:06:32;3.30;;;2.20;;
10511;SDS011;5304;48.604;2.096;2023-04-15T12:09:21;3.27;;;2.57;;
10511;SDS011;5304;48.604;2.096;2023-04-15T12:12:05;3.03;;;2.73;;
10511;SDS011;5304;48.604;2.096;2023-04-15T12:14:50;3.60;;;2.40;;
10511;SDS011;5304;48.604;2.096;2023-04-15T12:17:35;2.73;;;2.50;;
10511;SDS011;5304;48.604;2.096;2023-04-15T12:20:20;3.30;;;2.60;;
10511;SDS011;5304;48.604;2.096;2023-04-15T12:23:08;4.60;;;2.50;;
10511;SDS011;5304;48.604;2.096;2023-04-15T12:25:53;2.57;;;2.33;;
10511;SDS011;5304;48.604;2.096;2023-04-15T12:28:39;2.77;;;2.57;;
10511;SDS011;5304;48.604;2.096;2023-04-15T12:31:25;2.80;;;2.50;;
10511;SDS011;5304;48.604;2.096;2023-04-15T12:34:09;2.57;;;2.33;;
10511;SDS011;5304;48.604;2.096;2023-04-15T12:36:53;2.47;;;2.27;;
10511;SDS011;5304;48.604;2.096;2023-04-15T12:39:39;3.20;;;1.80;;
10511;SDS011;5304;48.604;2.096;2023-04-15T12:42:25;2.30;;;2.10;;
10511;SDS011;5304;48.604;2.096;2023-04-15T12:45:09;3.33;;;2.97;;
10511;SDS011;5304;48.604;2.096;2023-04-15T12:47:54;1.60;;;1.50;;
10511;SDS011;5304;48.604;2.096;2023-04-15T12:50:38;2.60;;;2.40;;
10511;SDS011;5304;48.604;2.096;2023-04-15T12:53:23;1.80;;;1.70;;
10511;SDS011;5304;48.604;2.096;2023-04-15T12:56:07;2.20;;;2.00;;
10511;SDS011;5304;48.604;2.096;2023-04-15T12:58:52;3.03;;;2.03;;
10511;SDS011;5304;48.604;2.096;2023-04-15T13:01:36;2.80;;;2.60;;
10511;SDS011;5304;48.604;2.096;2023-04-15T13:04:20;2.63;;;2.10;;
10511;SDS011;5304;48.604;2.096;2023-04-15T13:07:05;2.60;;;2.40;;
10511;SDS011;5304;48.604;2.096;2023-04-15T13:09:49;2.57;;;2.37;;
10511;SDS011;5304;48.604;2.096;2023-04-15T13:12:34;2.70;;;2.50;;
10511;SDS011;5304;48.604;2.096;2023-04-15T13:15:22;3.43;;;2.63;;
10511;SDS011;5304;48.604;2.096;2023-04-15T13:18:06;2.60;;;2.40;;
10511;SDS011;5304;48.604;2.096;2023-04-15T13:20:51;2.43;;;2.20;;
10511;SDS011;5304;48.604;2.096;2023-04-15T13:23:36;4.53;;;3.10;;
10511;SDS011;5304;48.604;2.096;2023-04-15T13:26:21;5.53;;;3.20;;
10511;SDS011;5304;48.604;2.096;2023-04-15T13:29:05;3.10;;;2.50;;
10511;SDS011;5304;48.604;2.096;2023-04-15T13:31:50;2.67;;;2.40;;
10511;SDS011;5304;48.604;2.096;2023-04-15T13:34:34;2.80;;;2.50;;
10511;SDS011;5304;48.604;2.096;2023-04-15T13:37:18;2.50;;;2.30;;
10511;SDS011;5304;48.604;2.096;2023-04-15T13:40:08;2.37;;;2.17;;
10511;SDS011;5304;48.604;2.096;2023-04-15T13:42:53;2.40;;;2.00;;
10511;SDS011;5304;48.604;2.096;2023-04-15T13:45:38;1.63;;;1.53;;
10511;SDS011;5304;48.604;2.096;2023-04-15T13:48:23;1.50;;;1.40;;
10511;SDS011;5304;48.604;2.096;2023-04-15T13:51:07;1.77;;;1.57;;
10511;SDS011;5304;48.604;2.096;2023-04-15T13:53:51;2.03;;;1.50;;
10511;SDS011;5304;48.604;2.096;2023-04-15T13:56:36;2.07;;;1.87;;
10511;SDS011;5304;48.604;2.096;2023-04-15T13:59:21;1.70;;;1.60;;
10511;SDS011;5304;48.604;2.096;2023-04-15T14:02:05;2.00;;;1.90;;
10511;SDS011;5304;48.604;2.096;2023-04-15T14:04:50;1.83;;;1.73;;
10511;SDS011;5304;48.604;2.096;2023-04-15T14:07:34;1.80;;;1.70;;
10511;SDS011;5304;48.604;2.096;2023-04-15T14:10:19;1.70;;;1.60;;
10511;SDS011;5304;48.604;2.096;2023-04-15T14:13:04;2.20;;;2.00;;
10511;SDS011;5304;48.604;2.096;2023-04-15T14:15:48;3.30;;;1.80;;
10511;SDS011;5304;48.604;2.096;2023-04-15T14:18:33;2.07;;;1.97;;
10511;SDS011;5304;48.604;2.096;2023-04-15T14:21:18;2.57;;;1.87;;
10511;SDS011;5304;48.604;2.096;2023-04-15T14:24:04;3.33;;;2.20;;
10511;SDS011;5304;48.604;2.096;2023-04-15T14:26:49;3.17;;;2.07;;
10511;SDS011;5304;48.604;2.096;2023-04-15T14:29:33;2.90;;;2.37;;
10511;SDS011;5304;48.604;2.096;2023-04-15T14:32:18;3.80;;;2.30;;
10511;SDS011;5304;48.604;2.096;2023-04-15T14:35:02;2.37;;;2.10;;
10511;SDS011;5304;48.604;2.096;2023-04-15T14:37:47;2.93;;;2.73;;
10511;SDS011;5304;48.604;2.096;2023-04-15T14:40:32;3.57;;;2.87;;
10511;SDS011;5304;48.604;2.096;2023-04-15T14:43:17;3.93;;;2.60;;
10511;SDS011;5304;48.604;2.096;2023-04-15T14:46:04;5.20;;;3.53;;
10511;SDS011;5304;48.604;2.096;2023-04-15T14:48:48;3.07;;;2.87;;
10511;SDS011;5304;48.604;2.096;2023-04-15T14:51:33;2.93;;;2.50;;
10511;SDS011;5304;48.604;2.096;2023-04-15T14:54:17;3.10;;;2.80;;
10511;SDS011;5304;48.604;2.096;2023-04-15T14:57:02;2.13;;;2.03;;
10511;SDS011;5304;48.604;2.096;2023-04-15T14:59:46;2.40;;;2.20;;
10511;SDS011;5304;48.604;2.096;2023-04-15T15:02:31;2.60;;;2.40;;
10511;SDS011;5304;48.604;2.096;2023-04-15T15:05:15;3.23;;;2.70;;
10511;SDS011;5304;48.604;2.096;2023-04-15T15:08:00;2.80;;;2.60;;
10511;SDS011;5304;48.604;2.096;2023-04-15T15:10:44;4.37;;;2.43;;
10511;SDS011;5304;48.604;2.096;2023-04-15T15:13:29;3.60;;;2.97;;
10511;SDS011;5304;48.604;2.096;2023-04-15T15:16:14;2.73;;;2.40;;
10511;SDS011;5304;48.604;2.096;2023-04-15T15:18:58;2.80;;;2.43;;
10511;SDS011;5304;48.604;2.096;2023-04-15T15:21:43;4.77;;;3.43;;
10511;SDS011;5304;48.604;2.096;2023-04-15T15:24:28;4.67;;;2.87;;
10511;SDS011;5304;48.604;2.096;2023-04-15T15:27:12;3.17;;;2.87;;
10511;SDS011;5304;48.604;2.096;2023-04-15T15:29:57;2.73;;;2.53;;
10511;SDS011;5304;48.604;2.096;2023-04-15T15:32:42;2.80;;;2.50;;
10511;SDS011;5304;48.604;2.096;2023-04-15T15:35:27;3.63;;;2.90;;
10511;SDS011;5304;48.604;2.096;2023-04-15T15:38:11;4.73;;;2.87;;
10511;SDS011;5304;48.604;2.096;2023-04-15T15:40:56;4.17;;;3.50;;
10511;SDS011;5304;48.604;2.096;2023-04-15T15:43:40;3.40;;;2.53;;
10511;SDS011;5304;48.604;2.096;2023-04-15T15:46:25;3.63;;;3.17;;
10511;SDS011;5304;48.604;2.096;2023-04-15T15:49:10;4.33;;;3.13;;
10511;SDS011;5304;48.604;2.096;2023-04-15T15:51:55;3.27;;;2.70;;
10511;SDS011;5304;48.604;2.096;2023-04-15T15:54:40;3.57;;;2.93;;
10511;SDS011;5304;48.604;2.096;2023-04-15T15:57:24;3.27;;;3.00;;
10511;SDS011;5304;48.604;2.096;2023-04-15T16:00:09;3.50;;;3.20;;
10511;SDS011;5304;48.604;2.096;2023-04-15T16:02:54;4.30;;;2.77;;
10511;SDS011;5304;48.604;2.096;2023-04-15T16:05:40;4.13;;;3.50;;
10511;SDS011;5304;48.604;2.096;2023-04-15T16:08:24;3.57;;;3.10;;
10511;SDS011;5304;48.604;2.096;2023-04-15T16:11:09;4.07;;;3.70;;
10511;SDS011;5304;48.604;2.096;2023-04-15T16:13:53;4.40;;;4.00;;
10511;SDS011;5304;48.604;2.096;2023-04-15T16:16:38;3.73;;;3.20;;
10511;SDS011;5304;48.604;2.096;2023-04-15T16:19:22;3.43;;;3.13;;
10511;SDS011;5304;48.604;2.096;2023-04-15T16:22:06;4.17;;;3.30;;
10511;SDS011;5304;48.604;2.096;2023-04-15T16:24:51;3.90;;;3.40;;
10511;SDS011;5304;48.604;2.096;2023-04-15T16:27:36;3.77;;;3.10;;
10511;SDS011;5304;48.604;2.096;2023-04-15T16:30:21;4.10;;;3.60;;
10511;SDS011;5304;48.604;2.096;2023-04-15T16:33:06;4.33;;;3.00;;
10511;SDS011;5304;48.604;2.096;2023-04-15T16:35:50;5.50;;;3.70;;
10511;SDS011;5304;48.604;2.096;2023-04-15T16:38:35;4.77;;;3.57;;
10511;SDS011;5304;48.604;2.096;2023-04-15T16:41:19;6.73;;;3.17;;
10511;SDS011;5304;48.604;2.096;2023-04-15T16:44:05;5.87;;;3.60;;
10511;SDS011;5304;48.604;2.096;2023-04-15T16:46:51;5.30;;;3.50;;
10511;SDS011;5304;48.604;2.096;2023-04-15T16:49:36;6.93;;;3.47;;
10511;SDS011;5304;48.604;2.096;2023-04-15T16:52:20;3.47;;;3.17;;
10511;SDS011;5304;48.604;2.096;2023-04-15T16:55:04;3.93;;;3.30;;
10511;SDS011;5304;48.604;2.096;2023-04-15T16:57:49;4.97;;;3.60;;
10511;SDS011;5304;48.604;2.096;2023-04-15T17:00:34;4.97;;;2.97;;